This is the latest recevied weather packets stored in our database for station/object DM4XI-13. If no packets are shown the sender has not sent any weather packets the latest 10 day(s).
| Time | Temp. | Humidity | Pressure | Rain* | Wind** | Luminosity | Snow |
|---|---|---|---|---|---|---|---|
| 1777824097 | 26.67° C | 25% | 1009.6 hPa | 0 mm | 1.34 m/s, 164° | 122 W/m² | - |
| 1777824036 | 26.67° C | 26% | 1009.8 hPa | 0 mm | 0.45 m/s, 205° | 131 W/m² | - |
| 1777823975 | 26.67° C | 25% | 1009.7 hPa | 0 mm | 0 m/s | 129 W/m² | - |
| 1777823914 | 26.67° C | 25% | 1009.6 hPa | 0 mm | 0.45 m/s, 193° | 140 W/m² | - |
| 1777823853 | 26.67° C | 25% | 1009.5 hPa | 0 mm | 1.79 m/s, 190° | 153 W/m² | - |
| 1777823792 | 26.67° C | 25% | 1009.6 hPa | 0 mm | 0.89 m/s, 179° | 159 W/m² | - |
| 1777823731 | 26.67° C | 25% | 1009.5 hPa | 0 mm | 0.89 m/s, 180° | 155 W/m² | - |
| 1777823670 | 27.22° C | 24% | 1009.6 hPa | 0 mm | 0.89 m/s, 205° | 154 W/m² | - |
| 1777823609 | 27.22° C | 25% | 1009.4 hPa | 0 mm | 1.34 m/s, 190° | 156 W/m² | - |
| 1777823548 | 27.22° C | 24% | 1009.5 hPa | 0 mm | 0.89 m/s, 181° | 167 W/m² | - |
| 1777823487 | 27.22° C | 24% | 1009.6 hPa | 0 mm | 0.45 m/s, 180° | 173 W/m² | - |
| 1777823426 | 27.22° C | 23% | 1009.8 hPa | 0 mm | 0.45 m/s, 181° | 188 W/m² | - |
| 1777823365 | 27.22° C | 23% | 1009.5 hPa | 0 mm | 0.89 m/s, 195° | 202 W/m² | - |
| 1777823304 | 26.67° C | 24% | 1009.6 hPa | 0 mm | 0.89 m/s, 168° | 212 W/m² | - |
| 1777823243 | 26.67° C | 23% | 1009.5 hPa | 0 mm | 0.45 m/s, 193° | 223 W/m² | - |
| 1777823182 | 26.67° C | 24% | 1009.7 hPa | 0 mm | 0.45 m/s, 200° | 226 W/m² | - |
| 1777823121 | 27.22° C | 23% | 1009.6 hPa | 0 mm | 1.79 m/s, 188° | 229 W/m² | - |
| 1777823060 | 27.22° C | 24% | 1009.8 hPa | 0 mm | 1.34 m/s, 183° | 229 W/m² | - |
| 1777822999 | 27.22° C | 24% | 1009.6 hPa | 0 mm | 1.34 m/s, 180° | 219 W/m² | - |
| 1777822938 | 27.22° C | 23% | 1009.5 hPa | 0 mm | 0 m/s | 227 W/m² | - |
| 1777822877 | 27.22° C | 23% | 1009.6 hPa | 0 mm | 0.89 m/s, 163° | 233 W/m² | - |
| 1777822816 | 26.67° C | 23% | 1009.5 hPa | 0 mm | 1.79 m/s, 191° | 258 W/m² | - |
| 1777822755 | 26.67° C | 24% | 1009.5 hPa | 0 mm | 0 m/s | 256 W/m² | - |
| 1777822694 | 26.67° C | 23% | 1009.5 hPa | 0 mm | 1.79 m/s, 158° | 252 W/m² | - |
| 1777822633 | 26.67° C | 23% | 1009.6 hPa | 0 mm | 0.89 m/s, 186° | 254 W/m² | - |
* Rain latest hour (hover to see other rain measurements)
** Current wind speed in m/s (hover to see current wind gust speed)